sensor_id;sensor_type;location;lat;lon;timestamp;P1;durP1;ratioP1;P2;durP2;ratioP2
74074;SDS011;62428;51.412;5.432;2022-07-22T11:56:21;6.63;;;2.90;;
74074;SDS011;62428;51.412;5.432;2022-07-22T11:58:47;5.63;;;3.00;;
74074;SDS011;62428;51.412;5.432;2022-07-22T12:01:19;5.35;;;2.35;;
74074;SDS011;62428;51.412;5.432;2022-07-22T12:03:59;4.70;;;2.40;;
74074;SDS011;62428;51.412;5.432;2022-07-22T12:06:28;6.78;;;2.25;;
74074;SDS011;62428;51.412;5.432;2022-07-22T12:09:01;5.53;;;2.30;;
74074;SDS011;62428;51.412;5.432;2022-07-22T12:11:30;6.10;;;2.30;;
74074;SDS011;62428;51.412;5.432;2022-07-22T12:13:55;7.13;;;3.30;;
74074;SDS011;62428;51.412;5.432;2022-07-22T12:19:05;5.27;;;2.20;;
74074;SDS011;62428;51.412;5.432;2022-07-22T12:21:33;6.00;;;2.80;;
74074;SDS011;62428;51.412;5.432;2022-07-22T12:27:03;7.20;;;2.78;;
74074;SDS011;62428;51.412;5.432;2022-07-22T12:29:40;5.18;;;2.78;;
74074;SDS011;62428;51.412;5.432;2022-07-22T12:34:54;8.32;;;2.80;;
74074;SDS011;62428;51.412;5.432;2022-07-22T12:42:18;7.82;;;2.53;;
74074;SDS011;62428;51.412;5.432;2022-07-22T12:44:51;4.23;;;2.10;;
74074;SDS011;62428;51.412;5.432;2022-07-22T12:50:19;4.20;;;2.30;;
74074;SDS011;62428;51.412;5.432;2022-07-22T12:52:54;7.25;;;2.83;;
74074;SDS011;62428;51.412;5.432;2022-07-22T12:55:37;11.97;;;2.77;;
74074;SDS011;62428;51.412;5.432;2022-07-22T12:58:04;5.05;;;2.58;;
74074;SDS011;62428;51.412;5.432;2022-07-22T13:00:32;7.30;;;3.35;;
74074;SDS011;62428;51.412;5.432;2022-07-22T13:02:59;8.68;;;2.90;;
74074;SDS011;62428;51.412;5.432;2022-07-22T13:05:26;6.33;;;3.10;;
74074;SDS011;62428;51.412;5.432;2022-07-22T13:07:52;4.35;;;2.60;;
74074;SDS011;62428;51.412;5.432;2022-07-22T13:10:19;7.18;;;3.10;;
74074;SDS011;62428;51.412;5.432;2022-07-22T13:12:46;5.17;;;2.60;;
74074;SDS011;62428;51.412;5.432;2022-07-22T13:15:11;5.90;;;2.50;;
74074;SDS011;62428;51.412;5.432;2022-07-22T13:17:37;7.90;;;3.10;;
74074;SDS011;62428;51.412;5.432;2022-07-22T13:20:04;7.28;;;3.63;;
74074;SDS011;62428;51.412;5.432;2022-07-22T13:22:32;6.87;;;3.10;;
74074;SDS011;62428;51.412;5.432;2022-07-22T13:24:57;6.93;;;2.88;;
74074;SDS011;62428;51.412;5.432;2022-07-22T13:27:23;5.37;;;2.77;;
74074;SDS011;62428;51.412;5.432;2022-07-22T13:29:48;5.87;;;2.77;;
74074;SDS011;62428;51.412;5.432;2022-07-22T13:32:14;8.87;;;3.00;;
74074;SDS011;62428;51.412;5.432;2022-07-22T13:34:40;9.47;;;3.50;;
74074;SDS011;62428;51.412;5.432;2022-07-22T13:37:05;6.80;;;3.63;;
74074;SDS011;62428;51.412;5.432;2022-07-22T13:39:31;7.27;;;3.13;;
74074;SDS011;62428;51.412;5.432;2022-07-22T13:41:56;6.63;;;3.47;;
74074;SDS011;62428;51.412;5.432;2022-07-22T13:44:21;8.23;;;3.67;;
74074;SDS011;62428;51.412;5.432;2022-07-22T13:46:47;8.30;;;3.23;;
74074;SDS011;62428;51.412;5.432;2022-07-22T13:49:14;7.35;;;2.97;;
74074;SDS011;62428;51.412;5.432;2022-07-22T13:51:39;6.10;;;3.23;;
74074;SDS011;62428;51.412;5.432;2022-07-22T13:54:04;8.17;;;3.37;;
74074;SDS011;62428;51.412;5.432;2022-07-22T13:56:30;6.00;;;3.43;;
74074;SDS011;62428;51.412;5.432;2022-07-22T13:58:57;5.87;;;3.00;;
74074;SDS011;62428;51.412;5.432;2022-07-22T14:01:22;5.68;;;3.40;;
74074;SDS011;62428;51.412;5.432;2022-07-22T14:03:48;6.63;;;3.87;;
74074;SDS011;62428;51.412;5.432;2022-07-22T14:06:13;5.73;;;3.70;;
74074;SDS011;62428;51.412;5.432;2022-07-22T14:08:38;9.23;;;4.67;;
74074;SDS011;62428;51.412;5.432;2022-07-22T14:11:04;7.80;;;4.10;;
74074;SDS011;62428;51.412;5.432;2022-07-22T14:13:29;8.80;;;3.70;;
74074;SDS011;62428;51.412;5.432;2022-07-22T14:15:55;8.33;;;3.80;;
74074;SDS011;62428;51.412;5.432;2022-07-22T14:18:20;13.20;;;5.03;;
74074;SDS011;62428;51.412;5.432;2022-07-22T14:20:46;9.13;;;4.53;;
74074;SDS011;62428;51.412;5.432;2022-07-22T14:23:12;8.52;;;3.85;;
74074;SDS011;62428;51.412;5.432;2022-07-22T14:25:38;7.70;;;3.70;;
74074;SDS011;62428;51.412;5.432;2022-07-22T14:28:04;7.00;;;3.97;;
74074;SDS011;62428;51.412;5.432;2022-07-22T14:30:31;8.10;;;4.28;;
74074;SDS011;62428;51.412;5.432;2022-07-22T14:32:56;9.10;;;4.75;;
74074;SDS011;62428;51.412;5.432;2022-07-22T14:35:22;5.23;;;3.63;;
74074;SDS011;62428;51.412;5.432;2022-07-22T14:37:47;13.27;;;4.70;;
74074;SDS011;62428;51.412;5.432;2022-07-22T14:40:13;8.38;;;4.80;;
74074;SDS011;62428;51.412;5.432;2022-07-22T14:42:38;12.47;;;3.93;;
74074;SDS011;62428;51.412;5.432;2022-07-22T14:45:04;8.67;;;4.33;;
74074;SDS011;62428;51.412;5.432;2022-07-22T14:47:35;8.93;;;4.72;;
74074;SDS011;62428;51.412;5.432;2022-07-22T14:50:04;10.23;;;5.40;;
74074;SDS011;62428;51.412;5.432;2022-07-22T14:52:30;10.18;;;4.97;;
74074;SDS011;62428;51.412;5.432;2022-07-22T14:54:55;9.67;;;5.17;;
74074;SDS011;62428;51.412;5.432;2022-07-22T14:57:21;9.03;;;4.80;;
74074;SDS011;62428;51.412;5.432;2022-07-22T14:59:46;8.50;;;4.27;;
74074;SDS011;62428;51.412;5.432;2022-07-22T15:02:11;11.23;;;5.10;;
74074;SDS011;62428;51.412;5.432;2022-07-22T15:04:37;7.13;;;4.50;;
74074;SDS011;62428;51.412;5.432;2022-07-22T15:07:02;7.43;;;4.72;;
74074;SDS011;62428;51.412;5.432;2022-07-22T15:09:27;8.10;;;5.07;;
74074;SDS011;62428;51.412;5.432;2022-07-22T15:11:53;13.00;;;4.70;;
74074;SDS011;62428;51.412;5.432;2022-07-22T15:14:19;7.93;;;4.45;;
74074;SDS011;62428;51.412;5.432;2022-07-22T15:16:44;6.00;;;4.03;;
74074;SDS011;62428;51.412;5.432;2022-07-22T15:19:09;9.10;;;5.57;;
74074;SDS011;62428;51.412;5.432;2022-07-22T15:21:35;7.73;;;4.83;;
74074;SDS011;62428;51.412;5.432;2022-07-22T15:24:00;7.13;;;4.60;;
74074;SDS011;62428;51.412;5.432;2022-07-22T15:26:26;8.15;;;5.07;;
74074;SDS011;62428;51.412;5.432;2022-07-22T15:28:51;8.57;;;5.23;;
74074;SDS011;62428;51.412;5.432;2022-07-22T15:31:18;10.18;;;5.47;;
74074;SDS011;62428;51.412;5.432;2022-07-22T15:33:43;8.73;;;4.80;;
74074;SDS011;62428;51.412;5.432;2022-07-22T15:36:09;8.98;;;5.78;;
74074;SDS011;62428;51.412;5.432;2022-07-22T15:38:36;8.53;;;5.17;;
74074;SDS011;62428;51.412;5.432;2022-07-22T15:41:02;9.55;;;4.80;;
74074;SDS011;62428;51.412;5.432;2022-07-22T15:43:28;7.75;;;4.85;;
74074;SDS011;62428;51.412;5.432;2022-07-22T15:45:54;6.10;;;4.67;;
74074;SDS011;62428;51.412;5.432;2022-07-22T15:48:19;10.63;;;4.60;;
74074;SDS011;62428;51.412;5.432;2022-07-22T15:50:44;7.32;;;4.65;;
74074;SDS011;62428;51.412;5.432;2022-07-22T15:53:10;10.13;;;5.10;;
74074;SDS011;62428;51.412;5.432;2022-07-22T15:55:35;8.37;;;5.40;;
74074;SDS011;62428;51.412;5.432;2022-07-22T15:58:01;9.70;;;4.57;;
74074;SDS011;62428;51.412;5.432;2022-07-22T16:00:45;6.80;;;4.97;;
74074;SDS011;62428;51.412;5.432;2022-07-22T16:03:11;7.03;;;4.28;;
74074;SDS011;62428;51.412;5.432;2022-07-22T16:05:37;9.87;;;4.70;;
74074;SDS011;62428;51.412;5.432;2022-07-22T16:08:02;5.47;;;4.32;;
74074;SDS011;62428;51.412;5.432;2022-07-22T16:10:28;9.50;;;5.00;;
74074;SDS011;62428;51.412;5.432;2022-07-22T16:12:53;7.43;;;4.63;;
74074;SDS011;62428;51.412;5.432;2022-07-22T16:15:18;10.27;;;5.10;;
74074;SDS011;62428;51.412;5.432;2022-07-22T16:17:44;7.40;;;4.70;;
74074;SDS011;62428;51.412;5.432;2022-07-22T16:20:09;9.33;;;4.73;;
74074;SDS011;62428;51.412;5.432;2022-07-22T16:22:35;5.87;;;4.30;;
74074;SDS011;62428;51.412;5.432;2022-07-22T16:25:01;8.27;;;4.75;;
74074;SDS011;62428;51.412;5.432;2022-07-22T16:27:28;6.97;;;4.28;;
74074;SDS011;62428;51.412;5.432;2022-07-22T16:29:53;7.33;;;4.50;;
74074;SDS011;62428;51.412;5.432;2022-07-22T16:32:18;8.77;;;4.40;;
74074;SDS011;62428;51.412;5.432;2022-07-22T16:34:44;7.23;;;4.60;;
74074;SDS011;62428;51.412;5.432;2022-07-22T16:37:09;5.20;;;4.20;;
74074;SDS011;62428;51.412;5.432;2022-07-22T16:39:34;10.23;;;4.87;;
74074;SDS011;62428;51.412;5.432;2022-07-22T16:42:00;10.73;;;4.40;;
74074;SDS011;62428;51.412;5.432;2022-07-22T16:44:25;8.35;;;4.80;;
74074;SDS011;62428;51.412;5.432;2022-07-22T16:46:51;8.43;;;5.40;;
74074;SDS011;62428;51.412;5.432;2022-07-22T16:49:16;7.17;;;4.67;;
74074;SDS011;62428;51.412;5.432;2022-07-22T16:51:42;6.63;;;5.00;;
74074;SDS011;62428;51.412;5.432;2022-07-22T16:54:07;9.15;;;5.65;;
74074;SDS011;62428;51.412;5.432;2022-07-22T16:56:32;7.93;;;4.60;;
74074;SDS011;62428;51.412;5.432;2022-07-22T16:58:59;7.45;;;4.53;;
74074;SDS011;62428;51.412;5.432;2022-07-22T17:01:24;6.63;;;4.27;;
74074;SDS011;62428;51.412;5.432;2022-07-22T17:03:50;10.50;;;5.83;;
74074;SDS011;62428;51.412;5.432;2022-07-22T17:06:16;10.27;;;6.40;;
74074;SDS011;62428;51.412;5.432;2022-07-22T17:08:41;8.70;;;5.93;;
74074;SDS011;62428;51.412;5.432;2022-07-22T17:11:06;10.40;;;5.50;;
74074;SDS011;62428;51.412;5.432;2022-07-22T17:13:32;6.27;;;4.20;;
74074;SDS011;62428;51.412;5.432;2022-07-22T17:15:57;7.80;;;4.67;;
74074;SDS011;62428;51.412;5.432;2022-07-22T17:18:24;8.93;;;5.15;;
74074;SDS011;62428;51.412;5.432;2022-07-22T17:20:50;8.45;;;4.82;;
74074;SDS011;62428;51.412;5.432;2022-07-22T17:23:16;8.87;;;4.67;;
74074;SDS011;62428;51.412;5.432;2022-07-22T17:25:41;8.33;;;4.43;;
74074;SDS011;62428;51.412;5.432;2022-07-22T17:28:07;7.17;;;4.30;;
74074;SDS011;62428;51.412;5.432;2022-07-22T17:30:32;10.53;;;4.97;;
74074;SDS011;62428;51.412;5.432;2022-07-22T17:32:58;7.57;;;4.97;;
74074;SDS011;62428;51.412;5.432;2022-07-22T17:35:23;6.67;;;4.80;;
74074;SDS011;62428;51.412;5.432;2022-07-22T17:37:49;8.87;;;4.50;;
74074;SDS011;62428;51.412;5.432;2022-07-22T17:40:14;8.40;;;4.40;;
74074;SDS011;62428;51.412;5.432;2022-07-22T17:42:39;8.67;;;4.30;;
74074;SDS011;62428;51.412;5.432;2022-07-22T17:45:05;6.85;;;4.10;;
74074;SDS011;62428;51.412;5.432;2022-07-22T17:47:31;10.90;;;3.60;;
74074;SDS011;62428;51.412;5.432;2022-07-22T17:49:57;8.25;;;4.32;;
74074;SDS011;62428;51.412;5.432;2022-07-22T17:52:22;11.37;;;5.47;;
74074;SDS011;62428;51.412;5.432;2022-07-22T17:54:47;8.87;;;4.13;;
74074;SDS011;62428;51.412;5.432;2022-07-22T17:57:13;8.13;;;4.57;;
74074;SDS011;62428;51.412;5.432;2022-07-22T17:59:38;7.30;;;4.50;;
74074;SDS011;62428;51.412;5.432;2022-07-22T18:02:03;11.23;;;4.35;;
74074;SDS011;62428;51.412;5.432;2022-07-22T18:04:29;7.63;;;4.37;;
74074;SDS011;62428;51.412;5.432;2022-07-22T18:06:54;6.87;;;3.73;;
74074;SDS011;62428;51.412;5.432;2022-07-22T18:09:21;8.23;;;3.75;;
74074;SDS011;62428;51.412;5.432;2022-07-22T18:11:47;7.77;;;3.70;;
74074;SDS011;62428;51.412;5.432;2022-07-22T18:14:13;8.13;;;3.70;;
74074;SDS011;62428;51.412;5.432;2022-07-22T18:16:39;7.53;;;3.27;;
74074;SDS011;62428;51.412;5.432;2022-07-22T18:19:04;5.33;;;2.73;;
74074;SDS011;62428;51.412;5.432;2022-07-22T18:21:29;7.67;;;3.20;;
74074;SDS011;62428;51.412;5.432;2022-07-22T18:23:56;10.00;;;2.85;;
74074;SDS011;62428;51.412;5.432;2022-07-22T18:26:21;6.63;;;2.77;;
74074;SDS011;62428;51.412;5.432;2022-07-22T18:28:46;6.83;;;3.00;;
74074;SDS011;62428;51.412;5.432;2022-07-22T18:31:12;4.68;;;2.38;;
74074;SDS011;62428;51.412;5.432;2022-07-22T18:33:37;6.10;;;2.93;;
74074;SDS011;62428;51.412;5.432;2022-07-22T18:36:03;7.45;;;2.72;;
74074;SDS011;62428;51.412;5.432;2022-07-22T18:38:30;6.53;;;2.47;;
74074;SDS011;62428;51.412;5.432;2022-07-22T18:40:55;5.00;;;2.40;;
74074;SDS011;62428;51.412;5.432;2022-07-22T18:43:20;6.23;;;2.57;;
74074;SDS011;62428;51.412;5.432;2022-07-22T18:45:45;8.07;;;2.33;;
74074;SDS011;62428;51.412;5.432;2022-07-22T18:48:11;6.13;;;2.33;;
74074;SDS011;62428;51.412;5.432;2022-07-22T18:50:36;8.43;;;2.43;;
74074;SDS011;62428;51.412;5.432;2022-07-22T18:53:02;6.03;;;2.93;;
74074;SDS011;62428;51.412;5.432;2022-07-22T18:55:27;7.00;;;2.47;;
74074;SDS011;62428;51.412;5.432;2022-07-22T18:57:53;5.10;;;2.20;;
74074;SDS011;62428;51.412;5.432;2022-07-22T19:00:19;7.87;;;2.50;;
74074;SDS011;62428;51.412;5.432;2022-07-22T19:02:45;5.53;;;2.70;;
74074;SDS011;62428;51.412;5.432;2022-07-22T19:05:10;8.55;;;2.35;;
74074;SDS011;62428;51.412;5.432;2022-07-22T19:07:36;4.10;;;2.10;;
74074;SDS011;62428;51.412;5.432;2022-07-22T19:10:01;6.03;;;2.00;;
74074;SDS011;62428;51.412;5.432;2022-07-22T19:12:28;6.68;;;2.38;;
74074;SDS011;62428;51.412;5.432;2022-07-22T19:14:53;5.73;;;2.13;;
74074;SDS011;62428;51.412;5.432;2022-07-22T19:17:19;8.70;;;2.67;;
74074;SDS011;62428;51.412;5.432;2022-07-22T19:19:44;5.27;;;2.20;;
74074;SDS011;62428;51.412;5.432;2022-07-22T19:22:11;5.70;;;2.03;;
74074;SDS011;62428;51.412;5.432;2022-07-22T19:24:36;7.73;;;2.50;;
74074;SDS011;62428;51.412;5.432;2022-07-22T19:27:01;5.80;;;2.45;;
74074;SDS011;62428;51.412;5.432;2022-07-22T19:29:29;3.27;;;2.03;;
74074;SDS011;62428;51.412;5.432;2022-07-22T19:31:55;7.18;;;2.45;;
74074;SDS011;62428;51.412;5.432;2022-07-22T19:34:21;6.18;;;2.47;;
74074;SDS011;62428;51.412;5.432;2022-07-22T19:36:46;7.53;;;2.67;;
74074;SDS011;62428;51.412;5.432;2022-07-22T19:39:12;6.10;;;2.57;;
74074;SDS011;62428;51.412;5.432;2022-07-22T19:41:37;8.40;;;2.50;;
74074;SDS011;62428;51.412;5.432;2022-07-22T19:44:03;6.17;;;2.97;;
74074;SDS011;62428;51.412;5.432;2022-07-22T19:46:28;5.50;;;2.97;;
74074;SDS011;62428;51.412;5.432;2022-07-22T19:48:53;9.50;;;3.23;;
74074;SDS011;62428;51.412;5.432;2022-07-22T19:51:20;9.35;;;3.67;;
74074;SDS011;62428;51.412;5.432;2022-07-22T19:53:46;9.33;;;3.60;;
74074;SDS011;62428;51.412;5.432;2022-07-22T19:56:11;6.60;;;3.80;;
74074;SDS011;62428;51.412;5.432;2022-07-22T19:58:36;9.57;;;3.90;;
74074;SDS011;62428;51.412;5.432;2022-07-22T20:01:02;7.45;;;3.33;;
74074;SDS011;62428;51.412;5.432;2022-07-22T20:03:28;6.87;;;3.60;;
74074;SDS011;62428;51.412;5.432;2022-07-22T20:05:53;8.53;;;3.43;;
74074;SDS011;62428;51.412;5.432;2022-07-22T20:08:18;10.70;;;4.50;;
74074;SDS011;62428;51.412;5.432;2022-07-22T20:10:44;8.07;;;4.03;;
74074;SDS011;62428;51.412;5.432;2022-07-22T20:13:09;7.43;;;4.50;;
74074;SDS011;62428;51.412;5.432;2022-07-22T20:15:35;7.33;;;4.13;;
74074;SDS011;62428;51.412;5.432;2022-07-22T20:18:01;9.38;;;4.63;;
74074;SDS011;62428;51.412;5.432;2022-07-22T20:20:27;7.50;;;4.00;;
74074;SDS011;62428;51.412;5.432;2022-07-22T20:22:52;8.23;;;4.60;;
74074;SDS011;62428;51.412;5.432;2022-07-22T20:25:17;7.27;;;4.40;;
74074;SDS011;62428;51.412;5.432;2022-07-22T20:27:43;8.77;;;4.80;;
74074;SDS011;62428;51.412;5.432;2022-07-22T20:30:08;8.17;;;4.57;;
74074;SDS011;62428;51.412;5.432;2022-07-22T20:32:34;8.00;;;4.75;;
74074;SDS011;62428;51.412;5.432;2022-07-22T20:34:59;7.60;;;4.93;;
74074;SDS011;62428;51.412;5.432;2022-07-22T20:37:24;7.07;;;5.00;;
74074;SDS011;62428;51.412;5.432;2022-07-22T20:39:50;8.90;;;5.00;;
74074;SDS011;62428;51.412;5.432;2022-07-22T20:42:15;9.93;;;4.73;;
74074;SDS011;62428;51.412;5.432;2022-07-22T20:44:41;9.85;;;5.57;;
74074;SDS011;62428;51.412;5.432;2022-07-22T20:47:07;8.75;;;5.10;;
74074;SDS011;62428;51.412;5.432;2022-07-22T20:49:32;8.93;;;5.30;;
74074;SDS011;62428;51.412;5.432;2022-07-22T20:51:58;10.53;;;5.07;;
74074;SDS011;62428;51.412;5.432;2022-07-22T20:54:24;7.45;;;5.22;;
74074;SDS011;62428;51.412;5.432;2022-07-22T20:56:50;11.13;;;5.10;;
74074;SDS011;62428;51.412;5.432;2022-07-22T20:59:15;10.27;;;5.57;;
74074;SDS011;62428;51.412;5.432;2022-07-22T21:01:41;8.90;;;5.03;;
74074;SDS011;62428;51.412;5.432;2022-07-22T21:04:06;9.40;;;5.40;;
74074;SDS011;62428;51.412;5.432;2022-07-22T21:06:31;10.47;;;5.10;;
74074;SDS011;62428;51.412;5.432;2022-07-22T21:08:57;8.02;;;4.97;;
74074;SDS011;62428;51.412;5.432;2022-07-22T21:11:22;11.90;;;5.27;;
74074;SDS011;62428;51.412;5.432;2022-07-22T21:13:48;8.90;;;4.80;;
74074;SDS011;62428;51.412;5.432;2022-07-22T21:16:14;9.57;;;5.43;;
74074;SDS011;62428;51.412;5.432;2022-07-22T21:18:40;7.70;;;5.03;;
74074;SDS011;62428;51.412;5.432;2022-07-22T21:21:06;9.13;;;5.00;;
74074;SDS011;62428;51.412;5.432;2022-07-22T21:23:31;8.33;;;4.60;;
74074;SDS011;62428;51.412;5.432;2022-07-22T21:25:57;8.67;;;4.47;;
74074;SDS011;62428;51.412;5.432;2022-07-22T21:28:22;8.17;;;4.43;;
74074;SDS011;62428;51.412;5.432;2022-07-22T21:30:47;11.50;;;4.80;;
74074;SDS011;62428;51.412;5.432;2022-07-22T21:33:13;9.90;;;4.25;;
74074;SDS011;62428;51.412;5.432;2022-07-22T21:35:38;9.20;;;4.27;;
74074;SDS011;62428;51.412;5.432;2022-07-22T21:38:03;7.07;;;3.87;;
74074;SDS011;62428;51.412;5.432;2022-07-22T21:40:29;5.93;;;3.90;;
74074;SDS011;62428;51.412;5.432;2022-07-22T21:42:56;9.25;;;4.20;;
74074;SDS011;62428;51.412;5.432;2022-07-22T21:45:21;8.87;;;4.43;;
74074;SDS011;62428;51.412;5.432;2022-07-22T21:47:47;9.07;;;3.97;;
74074;SDS011;62428;51.412;5.432;2022-07-22T21:50:12;5.82;;;3.53;;
74074;SDS011;62428;51.412;5.432;2022-07-22T21:52:37;6.57;;;3.73;;
74074;SDS011;62428;51.412;5.432;2022-07-22T21:55:03;6.83;;;4.07;;
74074;SDS011;62428;51.412;5.432;2022-07-22T21:57:29;5.07;;;3.50;;
74074;SDS011;62428;51.412;5.432;2022-07-22T21:59:54;10.43;;;3.58;;
74074;SDS011;62428;51.412;5.432;2022-07-22T22:02:19;8.03;;;3.70;;
74074;SDS011;62428;51.412;5.432;2022-07-22T22:04:45;7.73;;;4.30;;
74074;SDS011;62428;51.412;5.432;2022-07-22T22:07:10;9.47;;;4.00;;
74074;SDS011;62428;51.412;5.432;2022-07-22T22:09:36;11.30;;;4.00;;
74074;SDS011;62428;51.412;5.432;2022-07-22T22:12:01;8.43;;;4.18;;
74074;SDS011;62428;51.412;5.432;2022-07-22T22:14:28;6.70;;;4.05;;
74074;SDS011;62428;51.412;5.432;2022-07-22T22:16:53;8.27;;;4.07;;
74074;SDS011;62428;51.412;5.432;2022-07-22T22:19:19;5.90;;;3.53;;
74074;SDS011;62428;51.412;5.432;2022-07-22T22:21:45;5.87;;;3.83;;
74074;SDS011;62428;51.412;5.432;2022-07-22T22:24:10;5.28;;;3.25;;
74074;SDS011;62428;51.412;5.432;2022-07-22T22:26:36;4.73;;;2.90;;
74074;SDS011;62428;51.412;5.432;2022-07-22T22:29:03;6.20;;;3.10;;
74074;SDS011;62428;51.412;5.432;2022-07-22T22:31:28;6.05;;;2.92;;
74074;SDS011;62428;51.412;5.432;2022-07-22T22:33:54;6.90;;;2.73;;
74074;SDS011;62428;51.412;5.432;2022-07-22T22:36:19;8.17;;;3.00;;
74074;SDS011;62428;51.412;5.432;2022-07-22T22:38:45;4.97;;;2.60;;
74074;SDS011;62428;51.412;5.432;2022-07-22T22:41:10;6.63;;;2.63;;
74074;SDS011;62428;51.412;5.432;2022-07-22T22:43:35;5.50;;;2.83;;
74074;SDS011;62428;51.412;5.432;2022-07-22T22:46:01;6.97;;;2.97;;
74074;SDS011;62428;51.412;5.432;2022-07-22T22:48:26;5.20;;;2.63;;
74074;SDS011;62428;51.412;5.432;2022-07-22T22:50:52;5.83;;;2.53;;
74074;SDS011;62428;51.412;5.432;2022-07-22T22:53:17;4.73;;;2.50;;
74074;SDS011;62428;51.412;5.432;2022-07-22T22:55:42;4.32;;;2.33;;
74074;SDS011;62428;51.412;5.432;2022-07-22T22:58:08;6.03;;;2.70;;
74074;SDS011;62428;51.412;5.432;2022-07-22T23:00:33;6.90;;;2.97;;
74074;SDS011;62428;51.412;5.432;2022-07-22T23:02:58;5.10;;;2.60;;
74074;SDS011;62428;51.412;5.432;2022-07-22T23:05:23;7.20;;;2.43;;
74074;SDS011;62428;51.412;5.432;2022-07-22T23:07:49;8.47;;;2.90;;
74074;SDS011;62428;51.412;5.432;2022-07-22T23:10:14;6.10;;;2.40;;
74074;SDS011;62428;51.412;5.432;2022-07-22T23:12:40;3.72;;;2.10;;
74074;SDS011;62428;51.412;5.432;2022-07-22T23:15:05;5.27;;;2.13;;
74074;SDS011;62428;51.412;5.432;2022-07-22T23:17:31;10.53;;;2.53;;
74074;SDS011;62428;51.412;5.432;2022-07-22T23:19:56;7.33;;;2.57;;
74074;SDS011;62428;51.412;5.432;2022-07-22T23:22:21;5.45;;;2.40;;
74074;SDS011;62428;51.412;5.432;2022-07-22T23:24:47;5.37;;;2.23;;
74074;SDS011;62428;51.412;5.432;2022-07-22T23:27:13;4.60;;;2.13;;
74074;SDS011;62428;51.412;5.432;2022-07-22T23:29:38;7.20;;;2.53;;
74074;SDS011;62428;51.412;5.432;2022-07-22T23:32:03;5.07;;;2.50;;
74074;SDS011;62428;51.412;5.432;2022-07-22T23:34:29;6.77;;;2.70;;
74074;SDS011;62428;51.412;5.432;2022-07-22T23:36:55;5.43;;;2.50;;
74074;SDS011;62428;51.412;5.432;2022-07-22T23:39:20;6.20;;;2.65;;
74074;SDS011;62428;51.412;5.432;2022-07-22T23:41:46;7.93;;;3.17;;
74074;SDS011;62428;51.412;5.432;2022-07-22T23:44:12;7.07;;;3.40;;
74074;SDS011;62428;51.412;5.432;2022-07-22T23:46:37;5.50;;;3.33;;
74074;SDS011;62428;51.412;5.432;2022-07-22T23:49:03;7.35;;;3.42;;
74074;SDS011;62428;51.412;5.432;2022-07-22T23:51:28;5.63;;;2.90;;
74074;SDS011;62428;51.412;5.432;2022-07-22T23:53:59;7.88;;;3.50;;
74074;SDS011;62428;51.412;5.432;2022-07-22T23:56:26;6.47;;;3.35;;
74074;SDS011;62428;51.412;5.432;2022-07-22T23:58:51;10.03;;;2.73;;
